Terminal Aerodrome Forecast
Issued by NWS

Home | Current Version | Previous Version | Text Only | Print | Product List | Glossary On
Versions: 1 2 3 4 5 6 7 8 9 10 11 12 13 14 15 16 17 18 19 20 21
000
FTUS41 KGYX 061301 AAA
TAFLEB
TAF AMD
KLEB 061301Z 0613/0712 VRB03KT 3SM BR OVC001
     FM061330 VRB03KT P6SM FEW040
     FM070900 00000KT 1 1/2SM BR OVC005=

USA.gov is the U.S. government's official web portal to all federal, state and local government web resources and services.